• Join FlightAware (Why Join?)
  • Login
  • US Flag 
01:09AM EDT


 

Airport Tracker/Info


-or-


 

Live Flight TrackerFlight Track Log ✈ ASQ5025 ✈ 28-Apr-2013 ✈ KLGA - KBTV

Flight Track Log - Related Links

Times and Time Zones

All times are in EDT time to prevent confusion due to time zone crossing. See the ASQ5025 flight status page for this flight to view local times or setup timezone preferences in your user account.

Time Position Orientation Groundspeed Altitude Reporting Facility
EDT Latitude Longitude Course Direction KTS MPH feet Rate Location/Type
09:54AM 40.7500 -73.8000 27° Northeast 202 232 2,100  Level New York TRACON
09:55AM 40.8000 -73.7500 37° Northeast 239 275 4,900 2,460 Climbing New York TRACON
09:58AM 40.9161 -73.6817 24° Northeast 254 292 9,700 2,160 Climbing Boston Center
09:59AM 41.0061 -73.6256 25° Northeast 270 311 11,800 1,740 Climbing Boston Center
10:00AM 41.4638 -73.3186 27° Northeast  Level FlightAware Approximate
10:00AM 41.1069 -73.5586 27° Northeast 327 376 13,200  Level Boston Center
10:01AM 41.1908 -73.5019 27° Northeast 365 420 15,300 2,100 Climbing Boston Center
10:02AM 41.2956 -73.4347 26° Northeast 371 427 17,500 1,800 Climbing Boston Center
10:03AM 41.3711 -73.3861 26° Northeast 364 419 18,900 1,860 Climbing Boston Center
10:04AM 41.4758 -73.3183 26° Northeast 369 425 21,300 2,040 Climbing Boston Center
10:05AM 41.5578 -73.2142 44° Northeast 369 425 23,000 1,560 Climbing Boston Center
10:06AM 41.6603 -73.1792 14° North 369 425 24,500 1,200 Climbing Boston Center
10:07AM 41.7706 -73.1778 North 363 418 25,500 960 Climbing Boston Center
10:08AM 41.8833 -73.1792 359° North 382 440 26,500 720 Climbing Boston Center
10:09AM 41.9958 -73.1803 360° North 394 453 27,000 240 Climbing Boston Center
10:10AM 42.1144 -73.1789 360° North 413 475 27,000  Level Boston Center
10:11AM 42.2375 -73.1775 360° North 424 488 27,000  Level Boston Center
10:12AM 42.3481 -73.1678 North 433 498 27,000  Level Boston Center
10:13AM 42.4669 -73.1661 North 433 498 27,000  Level Boston Center
10:14AM 42.5856 -73.1619 North 433 498 27,000  Level Boston Center
10:15AM 42.7169 -73.1719 357° North 428 493 27,000  Level Boston Center
10:16AM 42.8400 -73.1706 360° North 428 493 27,000  Level Boston Center
10:17AM 42.9586 -73.1719 360° North 428 493 27,000 -60 Level Boston Center
10:18AM 43.0794 -73.1706 360° North 428 493 26,900 -600 Descending Boston Center
10:19AM 43.2006 -73.1692 360° North 423 487 25,900 -1,500 Descending Boston Center
10:20AM 43.3256 -73.1678 360° North 433 498 24,000 -2,220 Descending Boston Center
10:21AM 43.4400 -73.1664 North 427 491 21,500 -2,580 Descending Boston Center
10:22AM 43.5569 -73.1619 North 421 484 18,900 -2,460 Descending Boston Center
10:23AM 43.6714 -73.1633 359° North 415 478 16,600 -2,400 Descending Boston Center
10:24AM 43.7672 -73.1644 360° North 395 455 14,100 -2,340 Descending Boston Center
10:25AM 43.8861 -73.1631 360° North 384 442 12,000 -1,080 Descending Boston Center
10:26AM 43.9883 -73.1614 North 379 436 12,000 -420 Level Boston Center
10:27AM 44.0903 -73.1597 North 368 423 11,200 -780 Descending Boston Center
10:28AM 44.1736 -73.1869 347° North 328 377 10,500 -1,200 Descending Boston Center
10:29AM 44.2483 -73.2167 344° North 289 333 8,800 -1,740 Descending Boston Center
10:30AM 44.3211 -73.2439 345° North 271 312 7,100 -1,260 Descending Boston Center
10:31AM 44.3833 -73.2681 344° North 250 288 6,300 -1,560 Descending Boston Center
10:32AM 44.4417 -73.2775 353° North 216 249 4,000 -2,220 Descending Boston Center
10:33AM 44.5022 -73.2694 North 211 243 1,900 -1,440 Descending Boston Center
10:34AM 44.5108 -73.2172 77° East 126 145 1,200 -660 Descending Boston Center
10:35AM 44.4861 -73.1761 130° Southeast 98 113 600 -480 Descending Boston Center
10:36AM 44.4694 -73.1497 132° Southeast 98 113 300 -180 Descending Boston Center
10:37AM 44.4636 -73.1178 104° East 98 113 300 5,340 Level Boston Center
10:38AM 44.4533 -73.0797 111° Southeast 98 113 11,000 10,680 Climbing Boston Center